sensor_id;sensor_type;location;lat;lon;timestamp;P1;durP1;ratioP1;P2;durP2;ratioP2
58468;SDS011;44257;44.804;10.220;2022-08-21T00:01:29;0.68;;;0.30;;
58468;SDS011;44257;44.804;10.220;2022-08-21T00:03:57;0.75;;;0.47;;
58468;SDS011;44257;44.804;10.220;2022-08-21T00:06:23;1.38;;;0.40;;
58468;SDS011;44257;44.804;10.220;2022-08-21T00:08:51;0.60;;;0.40;;
58468;SDS011;44257;44.804;10.220;2022-08-21T00:11:18;0.10;;;0.10;;
58468;SDS011;44257;44.804;10.220;2022-08-21T00:13:50;0.68;;;0.30;;
58468;SDS011;44257;44.804;10.220;2022-08-21T00:16:16;0.70;;;0.30;;
58468;SDS011;44257;44.804;10.220;2022-08-21T00:18:42;0.68;;;0.50;;
58468;SDS011;44257;44.804;10.220;2022-08-21T00:21:07;0.73;;;0.28;;
58468;SDS011;44257;44.804;10.220;2022-08-21T00:23:34;0.43;;;0.28;;
58468;SDS011;44257;44.804;10.220;2022-08-21T00:26:00;0.85;;;0.30;;
58468;SDS011;44257;44.804;10.220;2022-08-21T00:28:26;0.75;;;0.60;;
58468;SDS011;44257;44.804;10.220;2022-08-21T00:30:52;18.02;;;1.05;;
58468;SDS011;44257;44.804;10.220;2022-08-21T00:33:18;1.08;;;0.32;;
58468;SDS011;44257;44.804;10.220;2022-08-21T00:35:45;1.80;;;0.45;;
58468;SDS011;44257;44.804;10.220;2022-08-21T00:38:11;0.80;;;0.55;;
58468;SDS011;44257;44.804;10.220;2022-08-21T00:43:15;1.45;;;0.88;;
58468;SDS011;44257;44.804;10.220;2022-08-21T00:45:44;1.13;;;0.52;;
58468;SDS011;44257;44.804;10.220;2022-08-21T00:48:10;0.68;;;0.50;;
58468;SDS011;44257;44.804;10.220;2022-08-21T00:50:39;0.68;;;0.40;;
58468;SDS011;44257;44.804;10.220;2022-08-21T00:53:14;0.55;;;0.28;;
58468;SDS011;44257;44.804;10.220;2022-08-21T00:55:40;0.73;;;0.55;;
58468;SDS011;44257;44.804;10.220;2022-08-21T00:58:08;0.98;;;0.35;;
58468;SDS011;44257;44.804;10.220;2022-08-21T01:00:38;0.30;;;0.17;;
58468;SDS011;44257;44.804;10.220;2022-08-21T01:03:07;0.45;;;0.32;;
58468;SDS011;44257;44.804;10.220;2022-08-21T01:05:36;0.82;;;0.40;;
58468;SDS011;44257;44.804;10.220;2022-08-21T01:08:03;1.10;;;0.45;;
58468;SDS011;44257;44.804;10.220;2022-08-21T01:10:31;1.85;;;0.93;;
58468;SDS011;44257;44.804;10.220;2022-08-21T01:12:57;0.70;;;0.45;;
58468;SDS011;44257;44.804;10.220;2022-08-21T01:15:24;0.85;;;0.50;;
58468;SDS011;44257;44.804;10.220;2022-08-21T01:17:57;1.20;;;0.63;;
58468;SDS011;44257;44.804;10.220;2022-08-21T01:20:23;0.68;;;0.50;;
58468;SDS011;44257;44.804;10.220;2022-08-21T01:22:50;0.40;;;0.25;;
58468;SDS011;44257;44.804;10.220;2022-08-21T01:25:17;0.45;;;0.28;;
58468;SDS011;44257;44.804;10.220;2022-08-21T01:27:45;1.17;;;0.80;;
58468;SDS011;44257;44.804;10.220;2022-08-21T01:30:20;1.63;;;0.80;;
58468;SDS011;44257;44.804;10.220;2022-08-21T01:32:51;0.90;;;0.47;;
58468;SDS011;44257;44.804;10.220;2022-08-21T01:35:19;0.47;;;0.35;;
58468;SDS011;44257;44.804;10.220;2022-08-21T01:37:46;1.02;;;0.57;;
58468;SDS011;44257;44.804;10.220;2022-08-21T01:40:13;0.32;;;0.20;;
58468;SDS011;44257;44.804;10.220;2022-08-21T01:42:41;0.80;;;0.32;;
58468;SDS011;44257;44.804;10.220;2022-08-21T01:45:08;0.45;;;0.20;;
58468;SDS011;44257;44.804;10.220;2022-08-21T01:47:34;1.23;;;0.40;;
58468;SDS011;44257;44.804;10.220;2022-08-21T01:50:00;0.93;;;0.25;;
58468;SDS011;44257;44.804;10.220;2022-08-21T01:52:28;0.20;;;0.17;;
58468;SDS011;44257;44.804;10.220;2022-08-21T01:54:55;0.35;;;0.25;;
58468;SDS011;44257;44.804;10.220;2022-08-21T01:57:20;1.08;;;0.52;;
58468;SDS011;44257;44.804;10.220;2022-08-21T01:59:47;0.85;;;0.55;;
58468;SDS011;44257;44.804;10.220;2022-08-21T02:02:13;0.85;;;0.45;;
58468;SDS011;44257;44.804;10.220;2022-08-21T02:04:38;2.05;;;1.20;;
58468;SDS011;44257;44.804;10.220;2022-08-21T02:07:04;0.70;;;0.20;;
58468;SDS011;44257;44.804;10.220;2022-08-21T02:09:31;0.82;;;0.35;;
58468;SDS011;44257;44.804;10.220;2022-08-21T02:11:56;1.10;;;0.40;;
58468;SDS011;44257;44.804;10.220;2022-08-21T02:14:23;0.57;;;0.35;;
58468;SDS011;44257;44.804;10.220;2022-08-21T02:16:49;1.25;;;0.40;;
58468;SDS011;44257;44.804;10.220;2022-08-21T02:19:15;0.43;;;0.25;;
58468;SDS011;44257;44.804;10.220;2022-08-21T02:21:42;0.47;;;0.20;;
58468;SDS011;44257;44.804;10.220;2022-08-21T02:24:08;0.38;;;0.30;;
58468;SDS011;44257;44.804;10.220;2022-08-21T02:26:35;0.85;;;0.30;;
58468;SDS011;44257;44.804;10.220;2022-08-21T02:29:01;0.30;;;0.10;;
58468;SDS011;44257;44.804;10.220;2022-08-21T02:31:28;0.93;;;0.50;;
58468;SDS011;44257;44.804;10.220;2022-08-21T02:33:54;0.25;;;0.17;;
58468;SDS011;44257;44.804;10.220;2022-08-21T02:36:20;0.63;;;0.30;;
58468;SDS011;44257;44.804;10.220;2022-08-21T02:38:46;0.38;;;0.32;;
58468;SDS011;44257;44.804;10.220;2022-08-21T02:41:15;0.40;;;0.35;;
58468;SDS011;44257;44.804;10.220;2022-08-21T02:43:44;0.50;;;0.28;;
58468;SDS011;44257;44.804;10.220;2022-08-21T02:46:11;0.60;;;0.47;;
58468;SDS011;44257;44.804;10.220;2022-08-21T02:48:38;0.57;;;0.30;;
58468;SDS011;44257;44.804;10.220;2022-08-21T02:51:09;0.57;;;0.40;;
58468;SDS011;44257;44.804;10.220;2022-08-21T02:53:38;0.20;;;0.10;;
58468;SDS011;44257;44.804;10.220;2022-08-21T02:56:06;0.38;;;0.30;;
58468;SDS011;44257;44.804;10.220;2022-08-21T02:58:41;1.23;;;0.70;;
58468;SDS011;44257;44.804;10.220;2022-08-21T03:01:10;0.10;;;0.10;;
58468;SDS011;44257;44.804;10.220;2022-08-21T03:03:37;0.28;;;0.20;;
58468;SDS011;44257;44.804;10.220;2022-08-21T03:06:06;0.50;;;0.47;;
58468;SDS011;44257;44.804;10.220;2022-08-21T03:08:34;0.32;;;0.20;;
58468;SDS011;44257;44.804;10.220;2022-08-21T03:11:01;0.10;;;0.10;;
58468;SDS011;44257;44.804;10.220;2022-08-21T03:13:28;0.93;;;0.47;;
58468;SDS011;44257;44.804;10.220;2022-08-21T03:15:54;0.65;;;0.30;;
58468;SDS011;44257;44.804;10.220;2022-08-21T03:18:20;0.77;;;0.43;;
58468;SDS011;44257;44.804;10.220;2022-08-21T03:20:47;0.55;;;0.32;;
58468;SDS011;44257;44.804;10.220;2022-08-21T03:23:15;0.98;;;0.40;;
58468;SDS011;44257;44.804;10.220;2022-08-21T03:25:43;1.33;;;0.45;;
58468;SDS011;44257;44.804;10.220;2022-08-21T03:28:11;1.15;;;0.70;;
58468;SDS011;44257;44.804;10.220;2022-08-21T03:30:44;1.15;;;0.43;;
58468;SDS011;44257;44.804;10.220;2022-08-21T03:33:11;2.95;;;0.60;;
58468;SDS011;44257;44.804;10.220;2022-08-21T03:35:37;1.55;;;0.75;;
58468;SDS011;44257;44.804;10.220;2022-08-21T03:38:03;2.00;;;0.63;;
58468;SDS011;44257;44.804;10.220;2022-08-21T03:40:30;0.60;;;0.32;;
58468;SDS011;44257;44.804;10.220;2022-08-21T03:42:55;0.10;;;0.10;;
58468;SDS011;44257;44.804;10.220;2022-08-21T03:45:21;0.13;;;0.10;;
58468;SDS011;44257;44.804;10.220;2022-08-21T03:47:55;0.90;;;0.52;;
58468;SDS011;44257;44.804;10.220;2022-08-21T03:50:28;0.35;;;0.32;;
58468;SDS011;44257;44.804;10.220;2022-08-21T03:52:55;1.00;;;0.55;;
58468;SDS011;44257;44.804;10.220;2022-08-21T03:55:22;2.20;;;0.40;;
58468;SDS011;44257;44.804;10.220;2022-08-21T03:57:49;0.20;;;0.10;;
58468;SDS011;44257;44.804;10.220;2022-08-21T04:00:15;0.15;;;0.15;;
58468;SDS011;44257;44.804;10.220;2022-08-21T04:02:42;0.40;;;0.40;;
58468;SDS011;44257;44.804;10.220;2022-08-21T04:05:09;3.78;;;0.50;;
58468;SDS011;44257;44.804;10.220;2022-08-21T04:07:37;1.45;;;0.70;;
58468;SDS011;44257;44.804;10.220;2022-08-21T04:10:03;0.20;;;0.13;;
58468;SDS011;44257;44.804;10.220;2022-08-21T04:12:30;0.30;;;0.13;;
58468;SDS011;44257;44.804;10.220;2022-08-21T04:14:57;0.32;;;0.30;;
58468;SDS011;44257;44.804;10.220;2022-08-21T04:17:23;0.25;;;0.20;;
58468;SDS011;44257;44.804;10.220;2022-08-21T04:19:49;1.02;;;0.47;;
58468;SDS011;44257;44.804;10.220;2022-08-21T04:22:15;0.70;;;0.30;;
58468;SDS011;44257;44.804;10.220;2022-08-21T04:24:41;0.40;;;0.28;;
58468;SDS011;44257;44.804;10.220;2022-08-21T04:27:08;0.40;;;0.20;;
58468;SDS011;44257;44.804;10.220;2022-08-21T04:29:34;0.43;;;0.20;;
58468;SDS011;44257;44.804;10.220;2022-08-21T04:32:01;4.07;;;0.47;;
58468;SDS011;44257;44.804;10.220;2022-08-21T04:34:27;5.32;;;0.43;;
58468;SDS011;44257;44.804;10.220;2022-08-21T04:36:52;1.02;;;0.40;;
58468;SDS011;44257;44.804;10.220;2022-08-21T04:39:18;0.47;;;0.30;;
58468;SDS011;44257;44.804;10.220;2022-08-21T04:41:44;0.70;;;0.30;;
58468;SDS011;44257;44.804;10.220;2022-08-21T04:44:12;0.77;;;0.43;;
58468;SDS011;44257;44.804;10.220;2022-08-21T04:46:37;0.85;;;0.40;;
58468;SDS011;44257;44.804;10.220;2022-08-21T04:49:04;0.95;;;0.55;;
58468;SDS011;44257;44.804;10.220;2022-08-21T04:51:31;0.20;;;0.20;;
58468;SDS011;44257;44.804;10.220;2022-08-21T04:54:09;1.30;;;1.00;;
58468;SDS011;44257;44.804;10.220;2022-08-21T04:56:45;4.55;;;0.88;;
58468;SDS011;44257;44.804;10.220;2022-08-21T04:59:22;0.10;;;0.10;;
58468;SDS011;44257;44.804;10.220;2022-08-21T05:01:53;0.13;;;0.13;;
58468;SDS011;44257;44.804;10.220;2022-08-21T05:04:22;0.45;;;0.35;;
58468;SDS011;44257;44.804;10.220;2022-08-21T05:06:52;0.32;;;0.13;;
58468;SDS011;44257;44.804;10.220;2022-08-21T05:09:21;0.75;;;0.40;;
58468;SDS011;44257;44.804;10.220;2022-08-21T05:11:49;0.40;;;0.20;;
58468;SDS011;44257;44.804;10.220;2022-08-21T05:14:17;0.52;;;0.28;;
58468;SDS011;44257;44.804;10.220;2022-08-21T05:16:43;0.57;;;0.28;;
58468;SDS011;44257;44.804;10.220;2022-08-21T05:19:09;0.85;;;0.50;;
58468;SDS011;44257;44.804;10.220;2022-08-21T05:21:36;0.52;;;0.30;;
58468;SDS011;44257;44.804;10.220;2022-08-21T05:24:07;0.55;;;0.22;;
58468;SDS011;44257;44.804;10.220;2022-08-21T05:26:33;0.88;;;0.30;;
58468;SDS011;44257;44.804;10.220;2022-08-21T05:29:00;0.20;;;0.10;;
58468;SDS011;44257;44.804;10.220;2022-08-21T05:31:27;0.65;;;0.52;;
58468;SDS011;44257;44.804;10.220;2022-08-21T05:33:53;3.58;;;0.60;;
58468;SDS011;44257;44.804;10.220;2022-08-21T05:36:19;0.63;;;0.30;;
58468;SDS011;44257;44.804;10.220;2022-08-21T05:38:46;0.65;;;0.20;;
58468;SDS011;44257;44.804;10.220;2022-08-21T05:41:12;0.57;;;0.20;;
58468;SDS011;44257;44.804;10.220;2022-08-21T05:43:39;0.40;;;0.28;;
58468;SDS011;44257;44.804;10.220;2022-08-21T05:46:05;0.67;;;0.30;;
58468;SDS011;44257;44.804;10.220;2022-08-21T05:48:32;1.25;;;0.75;;
58468;SDS011;44257;44.804;10.220;2022-08-21T05:51:03;0.68;;;0.30;;
58468;SDS011;44257;44.804;10.220;2022-08-21T05:53:33;1.00;;;0.40;;
58468;SDS011;44257;44.804;10.220;2022-08-21T05:56:00;0.40;;;0.30;;
58468;SDS011;44257;44.804;10.220;2022-08-21T05:58:29;0.40;;;0.30;;
58468;SDS011;44257;44.804;10.220;2022-08-21T06:00:57;0.25;;;0.20;;
58468;SDS011;44257;44.804;10.220;2022-08-21T06:03:26;0.82;;;0.40;;
58468;SDS011;44257;44.804;10.220;2022-08-21T06:05:54;0.80;;;0.32;;
58468;SDS011;44257;44.804;10.220;2022-08-21T06:08:21;0.70;;;0.40;;
58468;SDS011;44257;44.804;10.220;2022-08-21T06:10:48;0.73;;;0.20;;
58468;SDS011;44257;44.804;10.220;2022-08-21T06:13:16;0.60;;;0.30;;
58468;SDS011;44257;44.804;10.220;2022-08-21T06:15:44;1.13;;;0.60;;
58468;SDS011;44257;44.804;10.220;2022-08-21T06:18:10;1.13;;;0.40;;
58468;SDS011;44257;44.804;10.220;2022-08-21T06:20:36;0.90;;;0.50;;
58468;SDS011;44257;44.804;10.220;2022-08-21T06:23:03;0.73;;;0.43;;
58468;SDS011;44257;44.804;10.220;2022-08-21T06:25:29;0.80;;;0.40;;
58468;SDS011;44257;44.804;10.220;2022-08-21T06:28:02;0.73;;;0.52;;
58468;SDS011;44257;44.804;10.220;2022-08-21T06:30:30;2.47;;;0.73;;
58468;SDS011;44257;44.804;10.220;2022-08-21T06:32:57;0.82;;;0.50;;
58468;SDS011;44257;44.804;10.220;2022-08-21T06:35:23;0.47;;;0.30;;
58468;SDS011;44257;44.804;10.220;2022-08-21T06:37:50;0.85;;;0.40;;
58468;SDS011;44257;44.804;10.220;2022-08-21T06:40:16;4.40;;;0.68;;
58468;SDS011;44257;44.804;10.220;2022-08-21T06:42:42;1.02;;;0.40;;
58468;SDS011;44257;44.804;10.220;2022-08-21T06:45:09;1.38;;;0.75;;
58468;SDS011;44257;44.804;10.220;2022-08-21T06:47:35;0.47;;;0.38;;
58468;SDS011;44257;44.804;10.220;2022-08-21T06:50:01;0.60;;;0.35;;
58468;SDS011;44257;44.804;10.220;2022-08-21T06:52:29;0.50;;;0.32;;
58468;SDS011;44257;44.804;10.220;2022-08-21T06:54:56;0.57;;;0.40;;
58468;SDS011;44257;44.804;10.220;2022-08-21T06:57:22;2.97;;;0.45;;
58468;SDS011;44257;44.804;10.220;2022-08-21T06:59:48;1.23;;;0.30;;
58468;SDS011;44257;44.804;10.220;2022-08-21T07:02:14;0.68;;;0.40;;
58468;SDS011;44257;44.804;10.220;2022-08-21T07:04:40;0.40;;;0.30;;
58468;SDS011;44257;44.804;10.220;2022-08-21T07:07:06;1.80;;;0.45;;
58468;SDS011;44257;44.804;10.220;2022-08-21T07:09:32;2.95;;;1.40;;
58468;SDS011;44257;44.804;10.220;2022-08-21T07:11:58;2.70;;;1.50;;
58468;SDS011;44257;44.804;10.220;2022-08-21T07:14:24;1.65;;;0.80;;
58468;SDS011;44257;44.804;10.220;2022-08-21T07:16:50;1.80;;;1.40;;
58468;SDS011;44257;44.804;10.220;2022-08-21T07:19:16;2.58;;;0.80;;
58468;SDS011;44257;44.804;10.220;2022-08-21T07:21:43;1.05;;;0.60;;
58468;SDS011;44257;44.804;10.220;2022-08-21T07:24:09;1.13;;;0.65;;
58468;SDS011;44257;44.804;10.220;2022-08-21T07:26:35;0.80;;;0.73;;
58468;SDS011;44257;44.804;10.220;2022-08-21T07:29:02;2.10;;;0.88;;
58468;SDS011;44257;44.804;10.220;2022-08-21T07:31:28;1.13;;;0.75;;
58468;SDS011;44257;44.804;10.220;2022-08-21T07:33:54;1.42;;;0.70;;
58468;SDS011;44257;44.804;10.220;2022-08-21T07:36:20;0.93;;;0.70;;
58468;SDS011;44257;44.804;10.220;2022-08-21T07:38:46;2.33;;;1.10;;
58468;SDS011;44257;44.804;10.220;2022-08-21T07:41:14;1.90;;;1.10;;
58468;SDS011;44257;44.804;10.220;2022-08-21T07:43:46;2.10;;;1.10;;
58468;SDS011;44257;44.804;10.220;2022-08-21T07:46:12;3.92;;;1.80;;
58468;SDS011;44257;44.804;10.220;2022-08-21T07:48:39;2.15;;;0.98;;
58468;SDS011;44257;44.804;10.220;2022-08-21T07:51:06;1.20;;;1.08;;
58468;SDS011;44257;44.804;10.220;2022-08-21T07:53:36;1.33;;;0.80;;
58468;SDS011;44257;44.804;10.220;2022-08-21T07:56:03;1.77;;;0.95;;
58468;SDS011;44257;44.804;10.220;2022-08-21T07:58:32;1.90;;;0.95;;
58468;SDS011;44257;44.804;10.220;2022-08-21T08:00:58;0.88;;;0.60;;
58468;SDS011;44257;44.804;10.220;2022-08-21T08:03:24;1.13;;;0.93;;
58468;SDS011;44257;44.804;10.220;2022-08-21T08:05:50;1.85;;;1.10;;
58468;SDS011;44257;44.804;10.220;2022-08-21T08:08:16;3.88;;;1.35;;
58468;SDS011;44257;44.804;10.220;2022-08-21T08:10:42;2.15;;;1.08;;
58468;SDS011;44257;44.804;10.220;2022-08-21T08:13:09;1.90;;;1.25;;
58468;SDS011;44257;44.804;10.220;2022-08-21T08:15:35;2.05;;;1.48;;
58468;SDS011;44257;44.804;10.220;2022-08-21T08:18:01;2.10;;;0.80;;
58468;SDS011;44257;44.804;10.220;2022-08-21T08:20:28;2.95;;;1.23;;
58468;SDS011;44257;44.804;10.220;2022-08-21T08:22:54;2.78;;;1.35;;
58468;SDS011;44257;44.804;10.220;2022-08-21T08:25:21;1.65;;;1.00;;
58468;SDS011;44257;44.804;10.220;2022-08-21T08:27:48;2.67;;;1.40;;
58468;SDS011;44257;44.804;10.220;2022-08-21T08:30:16;1.83;;;1.23;;
58468;SDS011;44257;44.804;10.220;2022-08-21T08:32:43;3.28;;;1.98;;
58468;SDS011;44257;44.804;10.220;2022-08-21T08:35:10;3.83;;;1.50;;
58468;SDS011;44257;44.804;10.220;2022-08-21T08:37:37;5.28;;;1.90;;
58468;SDS011;44257;44.804;10.220;2022-08-21T08:40:09;2.85;;;1.17;;
58468;SDS011;44257;44.804;10.220;2022-08-21T08:42:38;2.95;;;1.40;;
58468;SDS011;44257;44.804;10.220;2022-08-21T08:45:15;5.00;;;1.50;;
58468;SDS011;44257;44.804;10.220;2022-08-21T08:47:46;1.80;;;1.48;;
58468;SDS011;44257;44.804;10.220;2022-08-21T08:50:18;3.90;;;1.65;;
58468;SDS011;44257;44.804;10.220;2022-08-21T08:52:48;3.70;;;2.00;;
58468;SDS011;44257;44.804;10.220;2022-08-21T08:55:35;4.80;;;1.98;;
58468;SDS011;44257;44.804;10.220;2022-08-21T08:58:05;2.95;;;1.42;;
58468;SDS011;44257;44.804;10.220;2022-08-21T09:00:33;2.22;;;1.40;;
58468;SDS011;44257;44.804;10.220;2022-08-21T09:03:01;1.95;;;1.05;;
58468;SDS011;44257;44.804;10.220;2022-08-21T09:08:46;2.22;;;1.45;;
58468;SDS011;44257;44.804;10.220;2022-08-21T09:11:29;3.20;;;1.65;;
58468;SDS011;44257;44.804;10.220;2022-08-21T09:25:46;2.88;;;1.90;;
58468;SDS011;44257;44.804;10.220;2022-08-21T09:28:27;3.72;;;1.80;;
58468;SDS011;44257;44.804;10.220;2022-08-21T09:30:59;2.03;;;1.20;;
58468;SDS011;44257;44.804;10.220;2022-08-21T09:33:27;2.22;;;1.35;;
58468;SDS011;44257;44.804;10.220;2022-08-21T09:35:54;2.13;;;0.90;;
58468;SDS011;44257;44.804;10.220;2022-08-21T09:38:29;2.47;;;0.90;;
58468;SDS011;44257;44.804;10.220;2022-08-21T09:40:59;2.08;;;1.20;;
58468;SDS011;44257;44.804;10.220;2022-08-21T09:43:29;1.45;;;0.85;;
58468;SDS011;44257;44.804;10.220;2022-08-21T09:46:19;1.27;;;0.88;;
58468;SDS011;44257;44.804;10.220;2022-08-21T09:48:53;0.73;;;0.55;;
58468;SDS011;44257;44.804;10.220;2022-08-21T09:51:31;0.98;;;0.73;;
58468;SDS011;44257;44.804;10.220;2022-08-21T09:59:34;1.58;;;0.75;;
58468;SDS011;44257;44.804;10.220;2022-08-21T10:02:00;2.47;;;0.90;;
58468;SDS011;44257;44.804;10.220;2022-08-21T10:04:32;3.10;;;0.52;;
58468;SDS011;44257;44.804;10.220;2022-08-21T10:07:07;2.03;;;1.02;;
58468;SDS011;44257;44.804;10.220;2022-08-21T10:09:33;1.00;;;0.65;;
58468;SDS011;44257;44.804;10.220;2022-08-21T10:12:11;2.50;;;0.90;;
58468;SDS011;44257;44.804;10.220;2022-08-21T10:17:49;1.33;;;0.73;;
58468;SDS011;44257;44.804;10.220;2022-08-21T10:20:33;1.25;;;0.80;;
58468;SDS011;44257;44.804;10.220;2022-08-21T10:23:27;2.35;;;1.23;;
58468;SDS011;44257;44.804;10.220;2022-08-21T10:31:18;0.85;;;0.60;;
58468;SDS011;44257;44.804;10.220;2022-08-21T10:34:10;1.98;;;1.20;;
58468;SDS011;44257;44.804;10.220;2022-08-21T10:37:08;1.73;;;0.98;;
58468;SDS011;44257;44.804;10.220;2022-08-21T10:47:34;0.98;;;0.50;;
58468;SDS011;44257;44.804;10.220;2022-08-21T10:50:08;1.70;;;1.05;;
58468;SDS011;44257;44.804;10.220;2022-08-21T10:55:15;1.45;;;0.77;;
58468;SDS011;44257;44.804;10.220;2022-08-21T10:57:46;0.80;;;0.50;;
58468;SDS011;44257;44.804;10.220;2022-08-21T11:02:55;1.48;;;0.77;;
58468;SDS011;44257;44.804;10.220;2022-08-21T11:08:09;1.48;;;0.70;;
58468;SDS011;44257;44.804;10.220;2022-08-21T11:10:46;2.65;;;0.80;;
58468;SDS011;44257;44.804;10.220;2022-08-21T11:16:12;1.15;;;0.57;;
58468;SDS011;44257;44.804;10.220;2022-08-21T11:18:49;2.55;;;0.80;;
58468;SDS011;44257;44.804;10.220;2022-08-21T11:21:37;2.13;;;0.80;;
58468;SDS011;44257;44.804;10.220;2022-08-21T11:24:34;1.85;;;0.85;;
58468;SDS011;44257;44.804;10.220;2022-08-21T11:27:26;1.33;;;0.70;;
58468;SDS011;44257;44.804;10.220;2022-08-21T11:29:57;1.00;;;0.63;;
58468;SDS011;44257;44.804;10.220;2022-08-21T11:37:57;1.30;;;0.70;;
58468;SDS011;44257;44.804;10.220;2022-08-21T11:40:42;1.83;;;1.08;;
58468;SDS011;44257;44.804;10.220;2022-08-21T11:51:47;1.02;;;0.60;;
58468;SDS011;44257;44.804;10.220;2022-08-21T11:54:28;1.27;;;0.98;;
58468;SDS011;44257;44.804;10.220;2022-08-21T11:57:04;0.98;;;0.57;;
58468;SDS011;44257;44.804;10.220;2022-08-21T11:59:43;2.80;;;1.27;;
58468;SDS011;44257;44.804;10.220;2022-08-21T12:02:22;1.80;;;0.90;;
58468;SDS011;44257;44.804;10.220;2022-08-21T12:04:56;1.33;;;0.68;;
58468;SDS011;44257;44.804;10.220;2022-08-21T12:10:06;1.85;;;0.98;;
58468;SDS011;44257;44.804;10.220;2022-08-21T12:12:38;11.98;;;1.70;;
58468;SDS011;44257;44.804;10.220;2022-08-21T12:21:25;1.08;;;0.68;;
58468;SDS011;44257;44.804;10.220;2022-08-21T12:26:59;1.27;;;0.50;;
58468;SDS011;44257;44.804;10.220;2022-08-21T12:29:43;1.10;;;0.70;;
58468;SDS011;44257;44.804;10.220;2022-08-21T12:34:51;1.13;;;0.60;;
58468;SDS011;44257;44.804;10.220;2022-08-21T12:38:18;2.28;;;0.98;;
58468;SDS011;44257;44.804;10.220;2022-08-21T12:40:46;1.00;;;0.57;;
58468;SDS011;44257;44.804;10.220;2022-08-21T12:43:33;0.45;;;0.40;;
58468;SDS011;44257;44.804;10.220;2022-08-21T12:46:15;1.38;;;0.80;;
58468;SDS011;44257;44.804;10.220;2022-08-21T12:51:17;1.33;;;0.60;;
58468;SDS011;44257;44.804;10.220;2022-08-21T12:53:48;0.82;;;0.60;;
58468;SDS011;44257;44.804;10.220;2022-08-21T12:56:24;1.48;;;1.05;;
58468;SDS011;44257;44.804;10.220;2022-08-21T12:58:56;1.15;;;0.82;;
58468;SDS011;44257;44.804;10.220;2022-08-21T13:01:33;1.73;;;0.75;;
58468;SDS011;44257;44.804;10.220;2022-08-21T13:06:45;0.77;;;0.50;;
58468;SDS011;44257;44.804;10.220;2022-08-21T13:09:15;0.47;;;0.30;;
58468;SDS011;44257;44.804;10.220;2022-08-21T13:11:46;0.60;;;0.60;;
58468;SDS011;44257;44.804;10.220;2022-08-21T13:16:54;1.13;;;0.70;;
58468;SDS011;44257;44.804;10.220;2022-08-21T13:19:21;0.50;;;0.50;;
58468;SDS011;44257;44.804;10.220;2022-08-21T13:21:47;0.75;;;0.40;;
58468;SDS011;44257;44.804;10.220;2022-08-21T13:26:43;0.73;;;0.40;;
58468;SDS011;44257;44.804;10.220;2022-08-21T13:29:10;0.50;;;0.30;;
58468;SDS011;44257;44.804;10.220;2022-08-21T13:31:42;1.30;;;0.70;;
58468;SDS011;44257;44.804;10.220;2022-08-21T13:34:23;0.65;;;0.50;;
58468;SDS011;44257;44.804;10.220;2022-08-21T13:36:54;2.33;;;0.98;;
58468;SDS011;44257;44.804;10.220;2022-08-21T13:39:23;3.65;;;0.52;;
58468;SDS011;44257;44.804;10.220;2022-08-21T13:41:52;0.88;;;0.60;;
58468;SDS011;44257;44.804;10.220;2022-08-21T13:46:57;0.70;;;0.43;;
58468;SDS011;44257;44.804;10.220;2022-08-21T13:49:40;1.00;;;0.55;;
58468;SDS011;44257;44.804;10.220;2022-08-21T13:52:20;0.95;;;0.63;;
58468;SDS011;44257;44.804;10.220;2022-08-21T13:54:53;1.30;;;0.65;;
58468;SDS011;44257;44.804;10.220;2022-08-21T13:57:33;1.02;;;0.65;;
58468;SDS011;44257;44.804;10.220;2022-08-21T14:00:13;1.10;;;0.60;;
58468;SDS011;44257;44.804;10.220;2022-08-21T14:02:43;1.23;;;0.63;;
58468;SDS011;44257;44.804;10.220;2022-08-21T14:05:21;0.82;;;0.60;;
58468;SDS011;44257;44.804;10.220;2022-08-21T14:08:37;0.77;;;0.50;;
58468;SDS011;44257;44.804;10.220;2022-08-21T14:10:45;0.90;;;0.50;;
58468;SDS011;44257;44.804;10.220;2022-08-21T14:13:25;0.75;;;0.60;;
58468;SDS011;44257;44.804;10.220;2022-08-21T14:16:27;1.00;;;0.40;;
58468;SDS011;44257;44.804;10.220;2022-08-21T14:19:26;1.00;;;0.53;;
58468;SDS011;44257;44.804;10.220;2022-08-21T14:22:00;0.38;;;0.30;;
58468;SDS011;44257;44.804;10.220;2022-08-21T14:24:28;1.50;;;0.50;;
58468;SDS011;44257;44.804;10.220;2022-08-21T14:26:56;1.23;;;0.50;;
58468;SDS011;44257;44.804;10.220;2022-08-21T14:29:24;1.20;;;0.70;;
58468;SDS011;44257;44.804;10.220;2022-08-21T14:31:56;1.13;;;0.77;;
58468;SDS011;44257;44.804;10.220;2022-08-21T14:34:24;1.50;;;0.45;;
58468;SDS011;44257;44.804;10.220;2022-08-21T14:36:52;1.00;;;0.50;;
58468;SDS011;44257;44.804;10.220;2022-08-21T14:39:19;1.00;;;0.57;;
58468;SDS011;44257;44.804;10.220;2022-08-21T14:41:45;0.75;;;0.40;;
58468;SDS011;44257;44.804;10.220;2022-08-21T14:44:14;0.82;;;0.32;;
58468;SDS011;44257;44.804;10.220;2022-08-21T14:46:42;0.60;;;0.40;;
58468;SDS011;44257;44.804;10.220;2022-08-21T14:49:07;1.52;;;0.60;;
58468;SDS011;44257;44.804;10.220;2022-08-21T14:51:35;1.20;;;0.50;;
58468;SDS011;44257;44.804;10.220;2022-08-21T14:54:00;0.90;;;0.50;;
58468;SDS011;44257;44.804;10.220;2022-08-21T14:56:26;0.40;;;0.22;;
58468;SDS011;44257;44.804;10.220;2022-08-21T14:58:52;1.13;;;0.70;;
58468;SDS011;44257;44.804;10.220;2022-08-21T15:01:21;1.45;;;0.50;;
58468;SDS011;44257;44.804;10.220;2022-08-21T15:03:48;1.85;;;0.70;;
58468;SDS011;44257;44.804;10.220;2022-08-21T15:06:14;0.85;;;0.57;;
58468;SDS011;44257;44.804;10.220;2022-08-21T15:08:42;0.90;;;0.55;;
58468;SDS011;44257;44.804;10.220;2022-08-21T15:11:08;0.75;;;0.40;;
58468;SDS011;44257;44.804;10.220;2022-08-21T15:13:39;0.80;;;0.43;;
58468;SDS011;44257;44.804;10.220;2022-08-21T15:16:05;0.70;;;0.50;;
58468;SDS011;44257;44.804;10.220;2022-08-21T15:18:33;1.80;;;0.57;;
58468;SDS011;44257;44.804;10.220;2022-08-21T15:21:00;0.82;;;0.45;;
58468;SDS011;44257;44.804;10.220;2022-08-21T15:23:26;0.60;;;0.40;;
58468;SDS011;44257;44.804;10.220;2022-08-21T15:25:53;0.43;;;0.38;;
58468;SDS011;44257;44.804;10.220;2022-08-21T15:28:23;0.70;;;0.45;;
58468;SDS011;44257;44.804;10.220;2022-08-21T15:30:50;0.70;;;0.55;;
58468;SDS011;44257;44.804;10.220;2022-08-21T15:33:16;0.55;;;0.30;;
58468;SDS011;44257;44.804;10.220;2022-08-21T15:35:44;0.47;;;0.30;;
58468;SDS011;44257;44.804;10.220;2022-08-21T15:38:11;1.65;;;0.50;;
58468;SDS011;44257;44.804;10.220;2022-08-21T15:40:38;0.98;;;0.40;;
58468;SDS011;44257;44.804;10.220;2022-08-21T15:43:05;1.30;;;0.60;;
58468;SDS011;44257;44.804;10.220;2022-08-21T15:45:34;1.00;;;0.50;;
58468;SDS011;44257;44.804;10.220;2022-08-21T15:48:00;5.32;;;1.33;;
58468;SDS011;44257;44.804;10.220;2022-08-21T15:50:26;0.35;;;0.32;;
58468;SDS011;44257;44.804;10.220;2022-08-21T15:52:54;0.75;;;0.45;;
58468;SDS011;44257;44.804;10.220;2022-08-21T15:55:20;0.75;;;0.40;;
58468;SDS011;44257;44.804;10.220;2022-08-21T15:57:49;1.73;;;0.40;;
58468;SDS011;44257;44.804;10.220;2022-08-21T16:00:19;0.73;;;0.40;;
58468;SDS011;44257;44.804;10.220;2022-08-21T16:02:49;1.90;;;0.57;;
58468;SDS011;44257;44.804;10.220;2022-08-21T16:05:23;0.57;;;0.43;;
58468;SDS011;44257;44.804;10.220;2022-08-21T16:07:50;0.20;;;0.20;;
58468;SDS011;44257;44.804;10.220;2022-08-21T16:10:18;0.68;;;0.43;;
58468;SDS011;44257;44.804;10.220;2022-08-21T16:12:50;0.82;;;0.70;;
58468;SDS011;44257;44.804;10.220;2022-08-21T16:15:21;0.50;;;0.28;;
58468;SDS011;44257;44.804;10.220;2022-08-21T16:17:47;0.68;;;0.40;;
58468;SDS011;44257;44.804;10.220;2022-08-21T16:20:20;1.38;;;0.85;;